Time;durP1;ratioP1;P1;durP2;ratioP2;P2;SDS_P1;SDS_P2;PMS_P1;PMS_P2;Temp;Humidity;BMP_temperature;BMP_pressure;BME280_temperature;BME280_humidity;BME280_pressure;Samples;Min_cycle;Max_cycle;Signal;HPM_P1;HPM_P2
2022/11/07 00:00:19;;;;;;;6.05;3.00;;;;;;;14.31;50.43;100284.44;832891;23;1103;-79
2022/11/07 00:00:39;;;;;;;2.80;2.37;;;;;;;14.44;50.21;100280.09;832061;23;1010;-79
2022/11/07 00:01:00;;;;;;;2.75;2.30;;;;;;;14.38;50.44;100266.09;834479;23;1166;-78
2022/11/07 00:01:22;;;;;;;3.97;2.60;;;;;;;14.40;50.24;100284.47;839295;23;1044;-78
2022/11/07 00:01:47;;;;;;;4.47;2.40;;;;;;;14.37;50.58;100271.31;829118;23;991;-77
2022/11/07 00:02:08;;;;;;;3.63;2.30;;;;;;;14.39;50.64;100285.34;830936;23;936;-78
2022/11/07 00:02:29;;;;;;;3.15;2.10;;;;;;;14.33;50.44;100272.19;834657;23;1132;-78
2022/11/07 00:02:49;;;;;;;3.40;2.30;;;;;;;14.33;50.57;100288.78;829507;23;1036;-79
2022/11/07 00:03:10;;;;;;;3.70;2.30;;;;;;;14.40;50.58;100266.09;829503;23;1138;-77
2022/11/07 00:03:31;;;;;;;3.90;2.40;;;;;;;14.41;50.53;100275.72;825366;23;1116;-77
2022/11/07 00:03:54;;;;;;;3.58;2.30;;;;;;;14.40;50.17;100263.47;832943;23;1299;-75
2022/11/07 00:04:15;;;;;;;4.35;2.30;;;;;;;14.36;50.32;100261.69;828562;23;1153;-78
2022/11/07 00:04:36;;;;;;;4.05;2.30;;;;;;;14.33;50.41;100259.06;832935;23;1310;-77
2022/11/07 00:04:56;;;;;;;2.60;2.25;;;;;;;14.38;50.58;100265.22;834250;23;977;-78
2022/11/07 00:05:18;;;;;;;2.40;2.20;;;;;;;14.41;50.60;100273.09;828588;23;1205;-77
2022/11/07 00:05:41;;;;;;;2.40;2.20;;;;;;;14.38;50.37;100255.56;829017;23;1336;-78
2022/11/07 00:06:02;;;;;;;2.40;2.20;;;;;;;14.36;50.30;100257.31;825413;23;1230;-76
2022/11/07 00:06:23;;;;;;;2.57;2.23;;;;;;;14.44;50.35;100265.22;828689;23;1081;-78
2022/11/07 00:06:43;;;;;;;3.10;2.30;;;;;;;14.37;50.65;100268.69;832614;23;1437;-79
2022/11/07 00:07:05;;;;;;;3.13;2.20;;;;;;;14.36;50.36;100252.09;824852;23;1223;-77
2022/11/07 00:07:26;;;;;;;4.40;2.30;;;;;;;14.34;50.59;100256.44;828625;23;1206;-77
2022/11/07 00:07:46;;;;;;;4.40;2.30;;;;;;;14.39;50.60;100261.72;828970;23;975;-78
2022/11/07 00:08:07;;;;;;;4.15;2.20;;;;;;;14.40;50.38;100260.84;828664;23;1122;-76
2022/11/07 00:08:30;;;;;;;3.28;2.10;;;;;;;14.36;50.62;100252.09;828507;23;1071;-76
2022/11/07 00:08:52;;;;;;;3.72;2.22;;;;;;;14.37;50.31;100258.19;824616;23;1895;-78
2022/11/07 00:09:13;;;;;;;3.67;2.20;;;;;;;14.45;50.55;100269.59;820924;24;1183;-77
2022/11/07 00:09:34;;;;;;;3.20;2.10;;;;;;;14.47;50.29;100281.00;817463;24;1201;-78
2022/11/07 00:09:55;;;;;;;2.83;2.25;;;;;;;14.35;50.50;100254.69;822013;24;1026;-78
2022/11/07 00:10:15;;;;;;;3.45;2.30;;;;;;;14.40;50.63;100268.72;829978;23;1133;-78
2022/11/07 00:10:36;;;;;;;4.13;2.40;;;;;;;14.34;50.76;100263.44;832399;23;1148;-78
2022/11/07 00:10:58;;;;;;;3.33;2.07;;;;;;;14.40;50.58;100279.22;825917;24;955;-78
2022/11/07 00:11:18;;;;;;;2.90;2.20;;;;;;;14.33;50.73;100257.28;824564;24;1219;-78
2022/11/07 00:11:39;;;;;;;2.33;2.13;;;;;;;14.31;50.83;100255.56;826068;24;932;-79
2022/11/07 00:12:00;;;;;;;2.60;2.40;;;;;;;14.34;50.74;100253.81;828178;23;1343;-78
2022/11/07 00:12:20;;;;;;;2.83;2.40;;;;;;;14.37;50.76;100252.94;832143;23;1109;-78
2022/11/07 00:12:41;;;;;;;6.20;2.78;;;;;;;14.42;50.56;100272.22;837648;23;1146;-79
2022/11/07 00:13:02;;;;;;;6.20;2.70;;;;;;;14.43;50.59;100281.84;829663;23;933;-78
2022/11/07 00:13:23;;;;;;;6.13;2.80;;;;;;;14.37;50.82;100258.19;833867;23;769;-78
2022/11/07 00:13:43;;;;;;;2.70;2.40;;;;;;;14.35;50.53;100280.94;833595;23;982;-78
2022/11/07 00:14:04;;;;;;;2.53;2.33;;;;;;;14.44;50.73;100267.84;832089;23;1369;-78
2022/11/07 00:14:24;;;;;;;2.83;2.50;;;;;;;14.38;50.56;100280.97;824644;23;1118;-78
2022/11/07 00:14:45;;;;;;;2.95;2.50;;;;;;;14.38;50.54;100259.97;824203;24;1149;-77
2022/11/07 00:15:06;;;;;;;3.80;2.63;;;;;;;14.42;50.58;100266.06;820088;24;1229;-78
2022/11/07 00:15:27;;;;;;;4.20;2.50;;;;;;;14.42;50.57;100266.97;824348;24;1269;-79
2022/11/07 00:15:47;;;;;;;3.93;2.43;;;;;;;14.42;50.66;100256.47;829470;23;1059;-78
2022/11/07 00:16:09;;;;;;;3.90;2.33;;;;;;;14.47;50.72;100269.59;829783;23;991;-78
2022/11/07 00:16:31;;;;;;;3.75;2.50;;;;;;;14.46;50.39;100257.34;827931;23;1243;-78
2022/11/07 00:16:51;;;;;;;3.30;2.40;;;;;;;14.46;50.65;100252.09;829514;23;1087;-78
2022/11/07 00:17:12;;;;;;;3.10;2.40;;;;;;;14.47;50.56;100259.09;831956;23;1118;-78
2022/11/07 00:17:33;;;;;;;2.80;2.35;;;;;;;14.43;50.54;100255.59;828006;23;1919;-77
2022/11/07 00:17:53;;;;;;;3.03;2.33;;;;;;;14.44;50.74;100273.09;837523;23;1080;-78
2022/11/07 00:18:14;;;;;;;3.93;2.30;;;;;;;14.39;50.60;100265.22;824599;24;1289;-78
2022/11/07 00:18:35;;;;;;;3.80;2.10;;;;;;;14.47;50.85;100273.13;828039;23;1315;-78
2022/11/07 00:18:55;;;;;;;3.65;2.00;;;;;;;14.41;50.59;100270.47;824335;23;1255;-78
2022/11/07 00:19:19;;;;;;;2.90;2.05;;;;;;;14.40;50.72;100260.84;820658;24;1224;-78
2022/11/07 00:19:40;;;;;;;3.22;2.10;;;;;;;14.48;50.63;100277.50;821677;24;1004;-78
2022/11/07 00:20:00;;;;;;;2.75;2.20;;;;;;;14.44;50.80;100252.09;820480;24;1009;-78
2022/11/07 00:20:21;;;;;;;3.40;2.33;;;;;;;14.37;50.64;100258.19;823675;23;1204;-78
2022/11/07 00:20:41;;;;;;;3.47;2.60;;;;;;;14.38;50.63;100246.84;826582;23;989;-77
2022/11/07 00:21:04;;;;;;;3.40;2.55;;;;;;;14.41;50.98;100273.09;825541;23;1323;-77
2022/11/07 00:21:24;;;;;;;3.05;2.47;;;;;;;14.36;50.98;100261.69;824497;23;1361;-78
2022/11/07 00:21:46;;;;;;;2.97;2.10;;;;;;;14.38;51.05;100267.84;824118;24;1035;-78
2022/11/07 00:22:07;;;;;;;3.50;2.15;;;;;;;14.45;50.77;100277.47;824205;23;1086;-78
2022/11/07 00:22:28;;;;;;;3.58;2.10;;;;;;;14.45;50.77;100274.84;824350;23;1295;-78
2022/11/07 00:22:49;;;;;;;3.35;2.33;;;;;;;14.48;51.00;100281.84;828287;23;1201;-78
2022/11/07 00:23:09;;;;;;;3.57;2.30;;;;;;;14.42;51.00;100276.56;829454;23;923;-79
2022/11/07 00:23:30;;;;;;;3.70;2.40;;;;;;;14.48;50.83;100272.25;828186;23;1241;-78
2022/11/07 00:23:50;;;;;;;3.93;2.37;;;;;;;14.57;50.78;100283.66;824380;24;1285;-79
2022/11/07 00:24:17;;;;;;;3.93;2.40;;;;;;;14.49;50.52;100273.09;829685;23;1057;-78
2022/11/07 00:24:38;;;;;;;4.90;2.50;;;;;;;14.41;50.77;100267.84;833067;23;1101;-78
2022/11/07 00:24:58;;;;;;;4.60;2.50;;;;;;;14.41;50.66;100259.97;828300;23;1290;-77
2022/11/07 00:25:19;;;;;;;3.67;2.30;;;;;;;14.47;50.90;100275.75;837513;23;1010;-78
2022/11/07 00:25:39;;;;;;;3.38;2.40;;;;;;;14.45;50.67;100266.97;832019;23;1130;-78
2022/11/07 00:26:04;;;;;;;2.80;2.50;;;;;;;14.41;50.99;100278.34;833293;23;1255;-78
2022/11/07 00:26:24;;;;;;;2.75;2.50;;;;;;;14.42;51.18;100272.22;824543;24;1190;-78
2022/11/07 00:26:46;;;;;;;3.13;2.47;;;;;;;14.39;50.94;100274.84;825437;24;1087;-77
2022/11/07 00:27:06;;;;;;;4.20;2.42;;;;;;;14.45;50.80;100276.63;824483;23;1008;-78
2022/11/07 00:27:27;;;;;;;5.30;2.60;;;;;;;14.47;50.99;100274.88;827000;23;1106;-76
2022/11/07 00:27:47;;;;;;;6.20;2.78;;;;;;;14.37;50.87;100264.34;829464;23;992;-77
2022/11/07 00:28:08;;;;;;;5.40;2.40;;;;;;;14.43;51.19;100278.34;832777;23;1200;-78
2022/11/07 00:28:32;;;;;;;3.90;2.20;;;;;;;14.47;50.84;100270.50;828061;23;1179;-78
2022/11/07 00:28:53;;;;;;;3.28;2.08;;;;;;;14.44;51.12;100274.88;828082;23;1330;-77
2022/11/07 00:29:18;;;;;;;4.00;2.37;;;;;;;14.48;50.91;100290.63;825659;24;1015;-77
2022/11/07 00:29:40;;;;;;;4.53;2.50;;;;;;;14.47;51.14;100281.00;825600;23;959;-78
2022/11/07 00:30:00;;;;;;;4.22;2.58;;;;;;;14.47;50.91;100291.50;820461;24;1173;-78
2022/11/07 00:30:21;;;;;;;3.83;2.60;;;;;;;14.41;51.34;100275.72;819768;24;1192;-78
2022/11/07 00:30:42;;;;;;;3.23;2.50;;;;;;;14.44;51.01;100272.25;821689;24;1132;-78
2022/11/07 00:31:04;;;;;;;3.10;2.47;;;;;;;14.45;50.93;100272.22;820630;24;1254;-78
2022/11/07 00:31:25;;;;;;;2.95;2.30;;;;;;;14.48;51.22;100282.75;829613;23;914;-77
2022/11/07 00:31:46;;;;;;;2.97;2.10;;;;;;;14.51;51.01;100282.75;837135;23;1081;-79
2022/11/07 00:32:07;;;;;;;3.35;2.30;;;;;;;14.49;51.12;100279.25;828138;23;1326;-79
2022/11/07 00:32:27;;;;;;;3.10;2.20;;;;;;;14.46;50.83;100278.34;829662;23;1101;-78
2022/11/07 00:32:48;;;;;;;3.40;2.23;;;;;;;14.46;51.03;100279.25;829414;23;1017;-77
2022/11/07 00:33:09;;;;;;;2.85;2.10;;;;;;;14.51;50.99;100288.00;832172;23;1269;-78
2022/11/07 00:33:29;;;;;;;3.38;2.40;;;;;;;14.51;50.89;100274.88;829634;23;991;-77
2022/11/07 00:33:51;;;;;;;3.20;2.40;;;;;;;14.45;50.98;100277.47;832036;23;1294;-78
2022/11/07 00:34:11;;;;;;;2.90;2.40;;;;;;;14.43;50.75;100287.09;828260;23;1182;-78
2022/11/07 00:34:34;;;;;;;3.13;2.27;;;;;;;14.44;51.17;100307.22;825659;23;995;-78
2022/11/07 00:34:54;;;;;;;3.10;2.20;;;;;;;14.47;50.87;100295.88;828312;23;1605;-79
2022/11/07 00:35:15;;;;;;;4.80;2.27;;;;;;;14.53;50.74;100302.00;822067;24;1231;-78
2022/11/07 00:35:40;;;;;;;5.15;2.28;;;;;;;14.46;51.15;100281.88;820357;24;1120;-78
2022/11/07 00:36:01;;;;;;;5.07;2.20;;;;;;;14.45;50.88;100281.84;828319;23;1174;-78
2022/11/07 00:36:27;;;;;;;3.85;2.00;;;;;;;14.42;50.98;100277.47;827702;23;1065;-78
2022/11/07 00:36:47;;;;;;;3.65;2.10;;;;;;;14.44;51.03;100286.22;835675;23;1213;-79
2022/11/07 00:37:08;;;;;;;4.00;2.10;;;;;;;14.48;50.99;100281.84;832162;23;1258;-77
2022/11/07 00:37:29;;;;;;;4.57;2.30;;;;;;;14.45;51.21;100287.97;833446;23;1905;-77
2022/11/07 00:37:49;;;;;;;5.40;2.40;;;;;;;14.43;51.15;100302.84;827809;23;1256;-78
2022/11/07 00:38:10;;;;;;;4.50;2.20;;;;;;;14.43;50.99;100302.84;829603;23;1010;-78
2022/11/07 00:38:31;;;;;;;2.77;1.93;;;;;;;14.41;51.03;100286.22;829395;23;1019;-78
2022/11/07 00:38:52;;;;;;;2.08;1.90;;;;;;;14.48;51.19;100279.22;824172;23;930;-78
2022/11/07 00:39:12;;;;;;;2.30;2.10;;;;;;;14.48;51.23;100285.38;820294;24;1339;-79
2022/11/07 00:39:33;;;;;;;4.33;2.30;;;;;;;14.49;51.36;100297.63;819938;24;1147;-78
2022/11/07 00:39:53;;;;;;;5.85;2.50;;;;;;;14.52;51.22;100289.75;819995;24;1161;-77
2022/11/07 00:40:14;;;;;;;5.97;2.60;;;;;;;14.49;51.07;100280.97;824319;24;1274;-77
2022/11/07 00:40:35;;;;;;;4.70;2.30;;;;;;;14.61;51.01;100303.78;824163;24;1141;-78
2022/11/07 00:40:57;;;;;;;3.00;2.10;;;;;;;14.61;50.98;100316.91;824124;23;1268;-78
2022/11/07 00:41:18;;;;;;;3.50;2.10;;;;;;;14.58;50.81;100314.28;821671;24;951;-78
2022/11/07 00:41:39;;;;;;;3.15;2.20;;;;;;;14.58;50.97;100299.44;825602;23;1015;-78
2022/11/07 00:42:00;;;;;;;3.55;2.20;;;;;;;14.56;51.21;100290.66;824220;23;1164;-77
2022/11/07 00:42:20;;;;;;;2.95;2.20;;;;;;;14.63;50.74;100309.94;829359;23;1011;-78
2022/11/07 00:42:41;;;;;;;2.70;2.20;;;;;;;14.55;50.83;100294.16;828159;23;1302;-78
2022/11/07 00:43:01;;;;;;;2.53;2.20;;;;;;;14.60;50.93;100309.91;831881;23;1112;-78
2022/11/07 00:43:23;;;;;;;2.72;2.28;;;;;;;14.57;50.98;100297.66;821647;24;804;-78
2022/11/07 00:43:44;;;;;;;3.03;2.25;;;;;;;14.57;51.13;100296.78;824280;23;1486;-77
2022/11/07 00:44:05;;;;;;;2.85;2.22;;;;;;;14.50;50.99;100288.88;825938;23;991;-78
2022/11/07 00:44:26;;;;;;;3.30;2.30;;;;;;;14.64;51.09;100304.69;825679;23;880;-78
2022/11/07 00:44:46;;;;;;;2.97;2.30;;;;;;;14.70;50.90;100295.06;824382;24;1187;-79
2022/11/07 00:45:08;;;;;;;3.10;2.20;;;;;;;14.71;50.75;100300.34;829680;23;1101;-78
2022/11/07 00:45:28;;;;;;;2.60;2.10;;;;;;;14.66;50.76;100302.06;825040;23;1481;-78
2022/11/07 00:45:49;;;;;;;2.83;2.10;;;;;;;14.67;50.66;100309.06;825413;24;1076;-77
2022/11/07 00:46:11;;;;;;;2.80;2.10;;;;;;;14.64;50.87;100298.56;829574;23;992;-78
2022/11/07 00:46:32;;;;;;;2.45;2.03;;;;;;;14.59;50.84;100301.19;829240;23;964;-77
2022/11/07 00:46:53;;;;;;;2.78;2.10;;;;;;;14.59;50.90;100289.78;829557;23;1088;-77
2022/11/07 00:47:13;;;;;;;2.80;2.10;;;;;;;14.62;50.72;100311.69;825520;23;1197;-78
2022/11/07 00:47:34;;;;;;;2.45;1.92;;;;;;;14.70;50.94;100298.59;825374;23;1086;-78
2022/11/07 00:47:54;;;;;;;1.90;1.80;;;;;;;14.64;50.96;100299.44;827896;23;1084;-77
2022/11/07 00:48:15;;;;;;;2.20;2.00;;;;;;;14.71;50.93;100316.09;828027;23;1290;-78
2022/11/07 00:48:36;;;;;;;2.60;2.40;;;;;;;14.73;50.83;100302.94;829110;23;1099;-79
2022/11/07 00:48:56;;;;;;;3.00;2.50;;;;;;;14.68;50.79;100300.31;824259;24;1272;-78
2022/11/07 00:49:17;;;;;;;2.67;2.30;;;;;;;14.66;50.73;100294.19;827540;23;1135;-78
2022/11/07 00:49:37;;;;;;;3.60;2.30;;;;;;;14.63;51.05;100302.94;827610;23;1206;-77
2022/11/07 00:49:58;;;;;;;4.50;2.30;;;;;;;14.68;50.86;100308.19;827956;23;1516;-77
2022/11/07 00:50:19;;;;;;;4.90;2.40;;;;;;;14.70;50.81;100298.59;829693;23;1158;-78
2022/11/07 00:50:39;;;;;;;3.65;2.30;;;;;;;14.66;50.94;100302.97;829236;23;1020;-78
2022/11/07 00:51:10;;;;;;;3.33;2.10;;;;;;;14.74;50.89;100321.34;824353;23;1245;-77
2022/11/07 00:51:31;;;;;;;2.97;2.05;;;;;;;14.65;51.10;100322.19;824244;23;1289;-78
2022/11/07 00:51:52;;;;;;;2.50;2.00;;;;;;;14.64;50.96;100311.69;825900;23;968;-78
2022/11/07 00:52:12;;;;;;;3.15;2.15;;;;;;;14.66;51.18;100312.56;824376;23;1229;-77
2022/11/07 00:52:33;;;;;;;3.47;2.20;;;;;;;14.67;50.90;100303.81;825531;24;984;-78
2022/11/07 00:52:56;;;;;;;3.08;2.17;;;;;;;14.73;50.92;100316.09;829554;23;1069;-76
2022/11/07 00:53:16;;;;;;;2.78;2.20;;;;;;;14.72;50.80;100312.59;829464;23;971;-77
2022/11/07 00:53:37;;;;;;;5.10;2.50;;;;;;;14.72;50.88;100317.84;829520;23;990;-78
2022/11/07 00:54:01;;;;;;;5.68;2.53;;;;;;;14.73;50.76;100319.59;835764;23;1197;-78
2022/11/07 00:54:21;;;;;;;5.20;2.55;;;;;;;14.66;50.94;100312.56;833334;23;1176;-77
2022/11/07 00:54:42;;;;;;;4.20;2.40;;;;;;;14.71;51.00;100331.84;830494;23;1062;-78
2022/11/07 00:55:03;;;;;;;4.20;2.37;;;;;;;14.64;51.19;100309.06;836440;23;1088;-78
2022/11/07 00:55:23;;;;;;;3.35;2.10;;;;;;;14.74;51.00;100325.75;828041;23;1474;-77
2022/11/07 00:55:44;;;;;;;2.58;2.10;;;;;;;14.74;51.02;100331.84;828128;23;1146;-77
2022/11/07 00:56:08;;;;;;;2.45;2.08;;;;;;;14.69;50.81;100314.34;833247;23;1077;-79
2022/11/07 00:56:28;;;;;;;2.80;2.03;;;;;;;14.68;50.87;100321.31;824320;24;1242;-78
2022/11/07 00:56:49;;;;;;;3.95;2.13;;;;;;;14.71;50.83;100323.09;831839;23;1241;-78
2022/11/07 00:57:10;;;;;;;3.90;2.20;;;;;;;14.64;50.91;100314.31;832365;23;1178;-78
2022/11/07 00:57:30;;;;;;;4.47;2.30;;;;;;;14.66;51.06;100309.94;827960;23;1901;-78
2022/11/07 00:57:51;;;;;;;2.80;2.10;;;;;;;14.64;51.20;100306.44;832064;23;1049;-77
2022/11/07 00:58:12;;;;;;;3.60;2.20;;;;;;;14.71;51.19;100329.22;833179;23;1164;-77
2022/11/07 00:58:33;;;;;;;3.33;2.20;;;;;;;14.66;50.69;100323.06;829498;23;988;-78
2022/11/07 00:58:55;;;;;;;3.05;2.30;;;;;;;14.62;51.13;100316.06;828130;23;1799;-78
2022/11/07 00:59:16;;;;;;;2.50;2.20;;;;;;;14.66;51.13;100323.06;828339;23;1219;-78
2022/11/07 00:59:36;;;;;;;3.20;2.25;;;;;;;14.71;50.98;100321.34;827666;23;1269;-77
2022/11/07 00:59:57;;;;;;;3.90;2.30;;;;;;;14.70;51.23;100319.59;831524;23;1142;-77
2022/11/07 01:00:17;;;;;;;3.37;2.00;;;;;;;14.69;51.24;100325.69;828232;23;1205;-78
2022/11/07 01:00:38;;;;;;;2.92;1.83;;;;;;;14.62;51.26;100311.69;831828;23;1176;-78
2022/11/07 01:01:05;;;;;;;3.53;1.93;;;;;;;14.66;51.36;100316.09;840193;23;1114;-78
2022/11/07 01:01:29;;;;;;;4.15;2.10;;;;;;;14.61;51.30;100311.66;833663;23;1010;-78
2022/11/07 01:01:49;;;;;;;5.45;2.20;;;;;;;14.59;51.33;100311.69;831830;23;1475;-79
2022/11/07 01:02:10;;;;;;;4.45;2.30;;;;;;;14.61;51.13;100303.78;828517;23;1350;-78
2022/11/07 01:02:30;;;;;;;4.80;2.50;;;;;;;14.65;51.24;100316.06;829195;23;1034;-78
2022/11/07 01:05:09;;;;;;;4.05;2.30;;;;;;;14.65;51.22;100316.06;829511;23;982;-77
2022/11/07 01:05:09;;;;;;;4.15;2.30;;;;;;;14.66;51.16;100317.81;831847;23;1511;-77
2022/11/07 01:05:30;;;;;;;2.60;2.13;;;;;;;14.74;50.84;100325.75;829370;23;1017;-78
2022/11/07 01:05:58;;;;;;;2.30;2.05;;;;;;;14.74;51.17;100331.00;825477;24;1046;-78
2022/11/07 01:06:19;;;;;;;3.00;2.10;;;;;;;14.69;51.06;100324.84;824095;24;1110;-78
2022/11/07 01:06:41;;;;;;;3.38;2.10;;;;;;;14.64;51.14;100309.06;820297;24;1151;-78
2022/11/07 01:07:02;;;;;;;2.80;2.10;;;;;;;14.76;51.15;100332.72;821729;24;1011;-78
2022/11/07 01:07:23;;;;;;;2.60;2.20;;;;;;;14.79;51.02;100332.75;818048;24;722;-78
2022/11/07 01:07:43;;;;;;;2.50;2.30;;;;;;;14.76;51.02;100324.84;821432;24;965;-77
2022/11/07 01:08:05;;;;;;;2.60;2.40;;;;;;;14.75;51.12;100323.09;822517;24;1018;-78
2022/11/07 01:08:26;;;;;;;2.58;2.33;;;;;;;14.69;50.85;100316.97;824267;23;1829;-78
2022/11/07 01:08:47;;;;;;;2.40;2.20;;;;;;;14.71;51.08;100320.47;824111;24;1203;-78
2022/11/07 01:09:13;;;;;;;2.60;2.20;;;;;;;14.68;51.03;100321.31;824148;23;1139;-78
2022/11/07 01:09:34;;;;;;;3.38;2.30;;;;;;;14.69;51.13;100322.22;823760;24;1249;-77
2022/11/07 01:09:54;;;;;;;3.77;2.40;;;;;;;14.68;51.22;100315.22;827618;23;1084;-78
2022/11/07 01:10:15;;;;;;;3.10;2.10;;;;;;;14.66;51.08;100312.56;828171;23;1102;-78
2022/11/07 01:10:40;;;;;;;3.13;2.20;;;;;;;14.65;51.02;100324.81;823621;23;1343;-78
2022/11/07 01:11:06;;;;;;;3.17;2.20;;;;;;;14.75;51.11;100320.47;824342;23;1060;-78
2022/11/07 01:11:27;;;;;;;3.15;2.35;;;;;;;14.75;50.97;100328.34;825664;24;1018;-78
2022/11/07 01:11:49;;;;;;;4.03;2.40;;;;;;;14.64;51.08;100315.19;824115;24;1345;-77
2022/11/07 01:12:09;;;;;;;3.90;2.40;;;;;;;14.65;51.12;100322.19;829510;23;1169;-78
2022/11/07 01:12:32;;;;;;;3.37;2.17;;;;;;;14.71;51.16;100330.97;824181;24;1146;-78
2022/11/07 01:12:53;;;;;;;2.90;2.10;;;;;;;14.71;51.13;100326.59;820538;24;1827;-78
2022/11/07 01:13:25;;;;;;;2.80;2.08;;;;;;;14.65;51.09;100311.69;825520;24;772;-78
2022/11/07 01:13:46;;;;;;;3.88;2.10;;;;;;;14.68;51.15;100321.31;825500;24;1007;-78
2022/11/07 01:14:07;;;;;;;4.10;2.10;;;;;;;14.73;51.11;100324.84;835569;23;1247;-78
2022/11/07 01:14:28;;;;;;;4.43;2.00;;;;;;;14.68;50.88;100316.06;835999;23;1148;-77
2022/11/07 01:14:49;;;;;;;4.90;2.33;;;;;;;14.75;51.04;100327.50;831224;23;1096;-77
2022/11/07 01:15:10;;;;;;;6.40;2.60;;;;;;;14.70;51.00;100318.72;833375;23;1117;-78
2022/11/07 01:15:30;;;;;;;5.97;2.75;;;;;;;14.73;51.20;100332.72;832738;23;935;-79
2022/11/07 01:15:51;;;;;;;4.40;2.37;;;;;;;14.65;51.09;100319.56;831053;23;1152;-78
2022/11/07 01:16:11;;;;;;;3.53;2.38;;;;;;;14.68;51.18;100321.31;828076;23;1099;-77
2022/11/07 01:16:37;;;;;;;3.15;2.10;;;;;;;14.69;51.07;100330.94;833153;23;942;-78
2022/11/07 01:16:58;;;;;;;3.13;2.20;;;;;;;14.67;51.01;100309.06;829266;23;1109;-77
2022/11/07 01:17:18;;;;;;;3.13;2.10;;;;;;;14.69;51.06;100327.47;827961;23;1186;-78
2022/11/07 01:17:39;;;;;;;2.97;2.10;;;;;;;14.75;50.98;100327.50;829143;23;1946;-78
2022/11/07 01:17:59;;;;;;;3.73;2.20;;;;;;;14.70;51.09;100319.59;829384;23;1002;-78
2022/11/07 01:18:20;;;;;;;4.80;2.30;;;;;;;14.74;50.98;100321.34;825518;23;1234;-77
2022/11/07 01:18:41;;;;;;;4.88;2.40;;;;;;;14.75;51.08;100328.34;825487;23;1121;-78
2022/11/07 01:19:18;;;;;;;4.03;2.20;;;;;;;14.76;50.86;100316.97;823987;24;1356;-78
2022/11/07 01:19:46;;;;;;;2.42;2.20;;;;;;;14.72;51.09;100323.09;824967;24;1330;-78
2022/11/07 01:20:07;;;;;;;2.90;2.35;;;;;;;14.71;51.13;100320.47;823843;24;1312;-78
2022/11/07 01:20:27;;;;;;;2.80;2.30;;;;;;;14.67;50.94;100311.69;824086;23;1169;-78
2022/11/07 01:20:48;;;;;;;2.50;2.10;;;;;;;14.66;50.96;100313.47;825242;23;1247;-78
2022/11/07 01:21:09;;;;;;;2.20;2.00;;;;;;;14.72;50.93;100317.84;827874;23;1085;-78
2022/11/07 01:21:30;;;;;;;2.30;2.10;;;;;;;14.69;51.18;100327.47;828096;23;1142;-78
2022/11/07 01:21:50;;;;;;;2.40;2.10;;;;;;;14.71;51.13;100326.59;827765;23;1359;-78
2022/11/07 01:22:11;;;;;;;2.28;2.08;;;;;;;14.69;51.19;100317.81;827968;23;1295;-78
2022/11/07 01:22:31;;;;;;;4.10;2.20;;;;;;;14.66;51.12;100313.47;824090;24;1274;-77
2022/11/07 01:22:52;;;;;;;4.50;2.10;;;;;;;14.69;51.07;100322.22;829494;23;840;-78
2022/11/07 01:23:25;;;;;;;4.60;2.00;;;;;;;14.71;51.12;100326.59;827995;23;1189;-77
2022/11/07 01:23:45;;;;;;;3.10;2.00;;;;;;;14.72;51.03;100328.34;827922;23;1223;-77
2022/11/07 01:24:08;;;;;;;3.28;2.10;;;;;;;14.64;51.09;100324.81;831999;23;1526;-78
2022/11/07 01:24:28;;;;;;;3.47;2.00;;;;;;;14.65;51.02;100316.94;829306;23;1037;-78
2022/11/07 01:24:49;;;;;;;2.17;1.90;;;;;;;14.68;51.05;100321.31;831895;23;1177;-77
2022/11/07 01:25:09;;;;;;;2.15;1.80;;;;;;;14.70;51.21;100324.84;833209;23;978;-78
2022/11/07 01:25:30;;;;;;;2.83;2.00;;;;;;;14.70;51.23;100324.84;833243;23;1054;-77
2022/11/07 01:25:51;;;;;;;3.28;1.90;;;;;;;14.77;51.02;100329.22;827830;23;1228;-78
2022/11/07 01:26:12;;;;;;;3.37;1.90;;;;;;;14.79;51.27;100351.16;831963;23;1081;-78
2022/11/07 01:26:33;;;;;;;3.70;2.00;;;;;;;14.70;51.00;100323.97;832729;23;1227;-78
2022/11/07 01:26:53;;;;;;;3.17;1.95;;;;;;;14.69;51.01;100333.56;831804;23;1125;-78
2022/11/07 01:27:14;;;;;;;2.87;2.10;;;;;;;14.77;51.05;100325.75;829366;23;966;-78
2022/11/07 01:27:35;;;;;;;3.17;2.10;;;;;;;14.71;51.25;100323.09;825557;24;1148;-78
2022/11/07 01:27:55;;;;;;;3.28;2.20;;;;;;;14.74;51.03;100325.75;831802;23;1223;-79
2022/11/07 01:28:16;;;;;;;3.20;2.20;;;;;;;14.74;51.05;100337.09;827897;23;1238;-78
2022/11/07 01:28:37;;;;;;;2.92;2.20;;;;;;;14.75;51.15;100330.13;831790;23;1181;-77
2022/11/07 01:28:58;;;;;;;3.20;2.10;;;;;;;14.79;51.02;100335.38;832021;23;1241;-77
2022/11/07 01:29:19;;;;;;;3.10;2.10;;;;;;;14.75;51.11;100333.59;824547;23;1177;-79
2022/11/07 01:29:39;;;;;;;2.67;1.92;;;;;;;14.75;51.20;100328.34;827911;23;1043;-78
2022/11/07 01:30:00;;;;;;;2.50;2.00;;;;;;;14.72;51.21;100323.09;827678;23;1483;-78
2022/11/07 01:30:21;;;;;;;2.17;1.80;;;;;;;14.73;51.02;100319.59;832061;23;1230;-78
2022/11/07 01:30:43;;;;;;;2.70;1.90;;;;;;;14.78;51.02;100338.91;824208;24;1069;-78
2022/11/07 01:31:07;;;;;;;3.10;1.90;;;;;;;14.76;51.03;100324.84;827828;23;1099;-78
2022/11/07 01:31:30;;;;;;;2.65;2.10;;;;;;;14.86;50.81;100340.66;825435;24;1047;-78
2022/11/07 01:31:50;;;;;;;2.15;1.90;;;;;;;14.89;50.81;100340.66;825326;23;1064;-78
2022/11/07 01:32:11;;;;;;;2.88;1.90;;;;;;;14.89;50.64;100314.41;827955;23;1131;-77
2022/11/07 01:32:32;;;;;;;3.10;1.90;;;;;;;14.95;50.78;100338.06;833480;23;901;-78
2022/11/07 01:32:53;;;;;;;3.90;2.00;;;;;;;14.80;50.90;100324.00;823992;24;1320;-78
2022/11/07 01:33:14;;;;;;;3.08;1.90;;;;;;;14.83;50.88;100324.88;829429;23;959;-77
2022/11/07 01:33:35;;;;;;;3.80;2.10;;;;;;;14.76;50.81;100316.97;825487;24;991;-78
2022/11/07 01:33:57;;;;;;;3.42;2.10;;;;;;;14.82;50.92;100320.50;825372;24;1051;-77
2022/11/07 01:34:18;;;;;;;2.88;1.92;;;;;;;14.86;51.00;100335.41;824004;24;990;-78
2022/11/07 01:34:38;;;;;;;2.45;1.88;;;;;;;14.86;51.01;100336.28;825268;24;1065;-78
2022/11/07 01:34:59;;;;;;;2.10;1.90;;;;;;;14.83;50.90;100324.88;825471;24;1185;-78
2022/11/07 01:35:19;;;;;;;2.72;2.00;;;;;;;14.84;51.08;100327.53;824079;24;1145;-77
2022/11/07 01:35:40;;;;;;;3.17;2.07;;;;;;;14.79;50.92;100319.63;824079;24;1235;-78
2022/11/07 01:36:03;;;;;;;3.15;2.00;;;;;;;14.77;50.95;100325.75;824393;24;1404;-78
2022/11/07 01:36:24;;;;;;;2.80;1.90;;;;;;;14.82;50.93;100329.28;827895;23;811;-77
2022/11/07 01:36:45;;;;;;;2.30;2.10;;;;;;;14.78;50.85;100317.88;831850;23;1254;-77
2022/11/07 01:37:06;;;;;;;2.22;2.03;;;;;;;14.76;51.01;100322.22;833264;23;1033;-77
2022/11/07 01:37:26;;;;;;;2.20;2.00;;;;;;;14.69;50.92;100311.72;829366;23;1943;-77
2022/11/07 01:37:47;;;;;;;2.07;1.87;;;;;;;14.68;51.23;100325.72;824007;23;1238;-78
2022/11/07 01:38:07;;;;;;;2.00;1.80;;;;;;;14.66;51.35;100326.59;825635;24;979;-79
2022/11/07 01:38:28;;;;;;;2.22;2.00;;;;;;;14.70;51.25;100334.47;829421;23;986;-78
2022/11/07 01:38:49;;;;;;;2.20;1.90;;;;;;;14.77;51.10;100323.97;829400;23;1072;-78
2022/11/07 01:39:09;;;;;;;2.60;2.00;;;;;;;14.79;50.97;100340.66;833505;23;1089;-77
2022/11/07 01:39:30;;;;;;;3.17;2.10;;;;;;;14.74;51.12;100326.59;831587;23;1204;-78
2022/11/07 01:39:51;;;;;;;3.07;2.20;;;;;;;14.79;51.00;100322.25;832730;23;960;-77
2022/11/07 01:40:11;;;;;;;2.50;2.20;;;;;;;14.75;51.03;100322.25;827531;23;1023;-78
2022/11/07 01:41:19;;;;;;;2.00;1.90;;;;;;;14.72;51.16;100319.59;829436;23;1022;-78
2022/11/07 01:41:20;;;;;;;2.20;2.00;;;;;;;14.78;51.25;100328.38;827777;23;1208;-78
2022/11/07 01:41:41;;;;;;;2.70;2.08;;;;;;;14.75;51.21;100325.72;830876;23;985;-79
2022/11/07 01:42:02;;;;;;;2.95;1.98;;;;;;;14.76;51.00;100314.34;828245;23;1281;-78
2022/11/07 01:42:24;;;;;;;2.83;1.90;;;;;;;14.71;51.08;100326.59;827432;23;748;-78
2022/11/07 01:42:45;;;;;;;4.35;2.40;;;;;;;14.75;51.07;100333.59;829087;23;1209;-78
2022/11/07 01:43:08;;;;;;;4.50;2.30;;;;;;;14.78;51.23;100324.88;830232;23;1259;-78
2022/11/07 01:44:04;;;;;;;4.38;2.30;;;;;;;14.86;50.95;100325.78;831856;23;1197;-78
2022/11/07 01:44:25;;;;;;;3.65;2.05;;;;;;;14.84;51.05;100338.03;833455;23;823;-77
2022/11/07 01:44:50;;;;;;;4.30;2.10;;;;;;;14.87;51.16;100342.41;823978;24;1009;-78
2022/11/07 01:45:20;;;;;;;3.97;2.00;;;;;;;14.87;50.99;100327.53;821697;24;1061;-77